createdAt,value
2019-03-29T00:01:42.838Z,23.02
2019-03-29T00:04:14.581Z,16.73
2019-03-29T00:06:46.382Z,18.02
2019-03-29T00:09:19.391Z,19.48
2019-03-29T00:11:51.105Z,19.02
2019-03-29T00:14:23.564Z,18.73
2019-03-29T00:16:55.567Z,19.60
2019-03-29T00:19:27.903Z,19.17
2019-03-29T00:21:59.786Z,18.20
2019-03-29T00:24:31.607Z,16.65
2019-03-29T00:27:03.359Z,17.80
2019-03-29T00:29:35.096Z,15.43
2019-03-29T00:32:06.826Z,17.95
2019-03-29T00:34:38.632Z,16.45
2019-03-29T00:37:10.401Z,16.65
2019-03-29T00:39:42.145Z,19.20
2019-03-29T00:42:13.897Z,16.85
2019-03-29T00:44:45.690Z,16.50
2019-03-29T00:47:17.568Z,15.75
2019-03-29T00:49:49.299Z,17.82
2019-03-29T00:52:21.107Z,23.87
2019-03-29T00:54:52.828Z,17.32
2019-03-29T00:57:24.495Z,19.17
2019-03-29T00:59:56.304Z,18.70
2019-03-29T01:02:28.017Z,16.95
2019-03-29T01:04:59.828Z,20.72
2019-03-29T01:07:31.531Z,19.48
2019-03-29T01:10:04.480Z,20.35
2019-03-29T01:12:36.279Z,17.00
2019-03-29T01:15:09.556Z,18.52
2019-03-29T01:17:41.325Z,16.45
2019-03-29T01:20:13.164Z,18.00
2019-03-29T01:22:44.929Z,20.00
2019-03-29T01:25:16.753Z,17.73
2019-03-29T01:27:48.584Z,16.45
2019-03-29T01:30:20.566Z,18.50
2019-03-29T01:32:52.286Z,17.27
2019-03-29T01:35:24.092Z,19.95
2019-03-29T01:37:55.794Z,20.05
2019-03-29T01:40:27.505Z,20.13
2019-03-29T01:42:59.377Z,20.60
2019-03-29T01:45:31.078Z,19.62
2019-03-29T01:48:02.728Z,22.00
2019-03-29T01:50:35.129Z,20.08
2019-03-29T01:53:07.174Z,19.55
2019-03-29T01:55:38.888Z,19.52
2019-03-29T01:58:10.625Z,19.02
2019-03-29T02:00:42.405Z,19.55
2019-03-29T02:03:14.151Z,16.93
2019-03-29T02:05:45.928Z,20.40
2019-03-29T02:08:17.701Z,21.02
2019-03-29T02:10:49.842Z,23.95
2019-03-29T02:13:21.589Z,19.52
2019-03-29T02:15:53.334Z,17.13
2019-03-29T02:18:25.011Z,20.35
2019-03-29T02:20:57.049Z,21.73
2019-03-29T02:23:28.702Z,22.42
2019-03-29T02:26:00.403Z,21.10
2019-03-29T02:28:32.174Z,18.27
2019-03-29T02:31:03.935Z,24.75
2019-03-29T02:33:35.650Z,21.70
2019-03-29T02:36:07.367Z,23.18
2019-03-29T02:38:54.152Z,21.13
2019-03-29T02:41:12.633Z,25.12
2019-03-29T02:43:44.455Z,24.12
2019-03-29T02:46:16.212Z,18.80
2019-03-29T02:48:48.005Z,23.45
2019-03-29T02:51:19.796Z,24.27
2019-03-29T02:53:51.534Z,24.02
2019-03-29T02:56:23.336Z,20.23
2019-03-29T02:58:55.098Z,22.98
2019-03-29T03:01:26.829Z,19.80
2019-03-29T03:03:58.543Z,19.50
2019-03-29T03:06:30.270Z,20.47
2019-03-29T03:09:13.165Z,20.40
2019-03-29T03:11:35.593Z,19.67
2019-03-29T03:14:07.502Z,21.30
2019-03-29T03:16:39.247Z,18.60
2019-03-29T03:19:10.999Z,20.20
2019-03-29T03:21:42.945Z,19.12
2019-03-29T03:24:14.732Z,20.55
2019-03-29T03:26:46.467Z,20.65
2019-03-29T03:29:18.432Z,20.70
2019-03-29T03:31:50.289Z,22.62
2019-03-29T03:34:22.005Z,20.90
2019-03-29T03:36:53.760Z,19.77
2019-03-29T03:39:31.962Z,21.10
2019-03-29T03:41:59.092Z,19.90
2019-03-29T03:44:30.901Z,23.50
2019-03-29T03:47:02.647Z,19.07
2019-03-29T03:49:34.503Z,20.65
2019-03-29T03:52:06.248Z,22.10
2019-03-29T03:54:38.637Z,23.00
2019-03-29T03:57:11.727Z,19.77
2019-03-29T03:59:44.719Z,21.40
2019-03-29T04:02:16.566Z,20.92
2019-03-29T04:04:48.373Z,17.12
2019-03-29T04:07:20.100Z,19.82
2019-03-29T04:09:51.822Z,21.05
2019-03-29T04:12:23.482Z,19.92
2019-03-29T04:14:55.306Z,18.40
2019-03-29T04:17:27.174Z,19.75
2019-03-29T04:19:59.047Z,20.27
2019-03-29T04:22:30.712Z,21.57
2019-03-29T04:25:02.579Z,21.37
2019-03-29T04:27:34.352Z,20.12
2019-03-29T04:30:06.404Z,24.00
2019-03-29T04:32:38.172Z,20.10
2019-03-29T04:35:10.005Z,18.75
2019-03-29T04:37:41.687Z,23.22
2019-03-29T04:40:13.408Z,24.43
2019-03-29T04:42:45.262Z,24.25
2019-03-29T04:45:18.802Z,20.60
2019-03-29T04:47:50.600Z,23.45
2019-03-29T04:50:22.371Z,19.67
2019-03-29T04:52:54.163Z,22.67
2019-03-29T04:55:26.071Z,21.60
2019-03-29T04:57:57.767Z,20.52
2019-03-29T05:00:29.526Z,22.77
2019-03-29T05:03:01.298Z,24.37
2019-03-29T05:05:33.076Z,22.48
2019-03-29T05:08:04.815Z,21.87
2019-03-29T05:10:36.582Z,23.32
2019-03-29T05:13:08.335Z,22.25
2019-03-29T05:15:40.100Z,23.32
2019-03-29T05:18:11.806Z,21.50
2019-03-29T05:20:43.603Z,21.35
2019-03-29T05:23:15.378Z,22.42
2019-03-29T05:25:47.101Z,27.48
2019-03-29T05:28:18.816Z,26.73
2019-03-29T05:30:50.558Z,22.45
2019-03-29T05:33:22.361Z,26.05
2019-03-29T05:35:54.129Z,21.02
2019-03-29T05:38:25.854Z,25.70
2019-03-29T05:40:57.628Z,21.77
2019-03-29T05:43:29.475Z,21.05
2019-03-29T05:46:02.272Z,22.93
2019-03-29T05:48:34.045Z,21.95
2019-03-29T05:51:05.939Z,22.87
2019-03-29T05:53:37.806Z,23.07
2019-03-29T05:56:09.546Z,25.45
2019-03-29T05:58:41.394Z,22.40
2019-03-29T06:01:13.073Z,25.27
2019-03-29T06:03:44.793Z,20.55
2019-03-29T06:06:16.486Z,24.47
2019-03-29T06:08:48.261Z,27.67
2019-03-29T06:11:19.972Z,23.42
2019-03-29T06:13:51.650Z,27.05
2019-03-29T06:16:23.419Z,23.38
2019-03-29T06:18:55.142Z,23.02
2019-03-29T06:21:27.015Z,27.27
2019-03-29T06:23:58.763Z,19.60
2019-03-29T06:26:30.481Z,24.90
2019-03-29T06:29:02.245Z,25.37
2019-03-29T06:31:33.992Z,21.45
2019-03-29T06:34:05.724Z,20.80
2019-03-29T06:36:37.576Z,28.65
2019-03-29T06:39:09.366Z,22.45
2019-03-29T06:41:41.111Z,26.35
2019-03-29T06:44:12.856Z,25.17
2019-03-29T06:46:44.580Z,27.52
2019-03-29T06:49:16.299Z,24.23
2019-03-29T06:51:48.187Z,22.62
2019-03-29T06:54:20.009Z,26.00
2019-03-29T06:56:51.879Z,24.70
2019-03-29T06:59:23.571Z,26.85
2019-03-29T07:01:55.449Z,28.07
2019-03-29T07:04:27.218Z,26.97
2019-03-29T07:06:59.092Z,24.37
2019-03-29T07:09:30.835Z,25.92
2019-03-29T07:12:02.586Z,24.67
2019-03-29T07:14:34.337Z,30.45
2019-03-29T07:17:06.061Z,24.47
2019-03-29T07:19:38.093Z,27.17
2019-03-29T07:22:09.857Z,28.83
2019-03-29T07:24:41.668Z,22.50
2019-03-29T07:27:13.528Z,26.07
2019-03-29T07:29:45.220Z,26.82
2019-03-29T07:32:16.985Z,26.50
2019-03-29T07:34:49.342Z,30.05
2019-03-29T07:37:21.291Z,27.95
2019-03-29T07:39:53.963Z,27.37
2019-03-29T07:42:25.781Z,30.72
2019-03-29T07:44:57.521Z,30.10
2019-03-29T07:47:29.253Z,28.47
2019-03-29T07:50:01.116Z,32.83
2019-03-29T07:52:32.824Z,30.55
2019-03-29T07:55:04.652Z,31.42
2019-03-29T07:57:36.361Z,29.98
2019-03-29T08:00:09.169Z,28.70
2019-03-29T08:02:40.984Z,27.48
2019-03-29T08:05:12.691Z,29.05
2019-03-29T08:07:44.473Z,30.65
2019-03-29T08:10:24.894Z,29.23
2019-03-29T08:12:49.872Z,30.00
2019-03-29T08:15:21.636Z,28.02
2019-03-29T08:17:53.680Z,26.50
2019-03-29T08:20:39.284Z,30.55
2019-03-29T08:22:58.981Z,29.20
2019-03-29T08:25:30.838Z,25.23
2019-03-29T08:28:02.632Z,28.25
2019-03-29T08:30:34.394Z,27.45
2019-03-29T08:33:06.131Z,30.88
2019-03-29T08:35:37.836Z,34.35
2019-03-29T08:38:09.630Z,29.35
2019-03-29T08:40:41.340Z,33.25
2019-03-29T08:43:13.103Z,29.60
2019-03-29T08:45:44.945Z,26.97
2019-03-29T08:48:16.707Z,28.95
2019-03-29T08:50:48.456Z,29.35
2019-03-29T08:53:20.271Z,30.68
2019-03-29T08:55:52.035Z,25.57
2019-03-29T08:58:23.789Z,30.23
2019-03-29T09:00:55.548Z,31.62
2019-03-29T09:03:27.244Z,29.27
2019-03-29T09:05:59.103Z,29.45
2019-03-29T09:08:30.798Z,30.48
2019-03-29T09:11:02.621Z,33.45
2019-03-29T09:13:34.312Z,28.95
2019-03-29T09:16:06.121Z,27.22
2019-03-29T09:18:37.859Z,26.25
2019-03-29T09:21:09.655Z,25.45
2019-03-29T09:23:41.430Z,30.10
2019-03-29T09:26:13.255Z,29.98
2019-03-29T09:28:45.047Z,29.48
2019-03-29T09:31:16.806Z,30.15
2019-03-29T09:33:49.610Z,31.87
2019-03-29T09:36:21.473Z,33.13
2019-03-29T09:38:53.255Z,32.08
2019-03-29T09:41:25.019Z,30.25
2019-03-29T09:43:56.726Z,31.17
2019-03-29T09:46:28.542Z,31.60
2019-03-29T09:49:00.256Z,31.35
2019-03-29T09:51:32.073Z,27.55
2019-03-29T09:54:03.803Z,29.20
2019-03-29T09:56:38.986Z,30.92
2019-03-29T09:59:09.062Z,28.62
2019-03-29T10:01:40.802Z,27.52
2019-03-29T10:04:12.717Z,29.72
2019-03-29T10:06:44.451Z,29.63
2019-03-29T10:09:16.210Z,31.02
2019-03-29T10:11:47.962Z,31.55
2019-03-29T10:14:19.743Z,26.33
2019-03-29T10:16:51.491Z,27.52
2019-03-29T10:19:23.358Z,30.45
2019-03-29T10:21:55.146Z,28.75
2019-03-29T10:24:26.991Z,30.02
2019-03-29T10:26:58.703Z,30.43
2019-03-29T10:29:30.434Z,29.60
2019-03-29T10:32:05.487Z,33.45
2019-03-29T10:34:37.492Z,30.25
2019-03-29T10:37:09.104Z,28.32
2019-03-29T10:39:40.902Z,29.42
2019-03-29T10:42:12.667Z,28.15
2019-03-29T10:44:44.400Z,30.77
2019-03-29T10:47:16.211Z,31.85
2019-03-29T10:49:47.961Z,26.82
2019-03-29T10:52:19.703Z,29.23
2019-03-29T10:54:51.534Z,24.20
2019-03-29T10:57:23.324Z,20.90
2019-03-29T10:59:55.118Z,20.05
2019-03-29T11:02:26.868Z,20.97
2019-03-29T11:04:58.719Z,17.87
2019-03-29T11:07:30.437Z,15.90
2019-03-29T11:10:02.415Z,19.05
2019-03-29T11:12:34.148Z,18.07
2019-03-29T11:15:06.727Z,24.20
2019-03-29T11:17:38.727Z,21.48
2019-03-29T11:20:10.485Z,19.37
2019-03-29T11:22:42.214Z,21.93
2019-03-29T11:25:13.912Z,19.25
2019-03-29T11:27:45.659Z,21.33
2019-03-29T11:30:17.576Z,21.35
2019-03-29T11:32:49.418Z,17.80
2019-03-29T11:35:21.172Z,14.87
2019-03-29T11:37:52.925Z,20.27
2019-03-29T11:40:24.707Z,17.80
2019-03-29T11:42:56.545Z,16.52
2019-03-29T11:45:28.425Z,15.83
2019-03-29T11:48:08.544Z,18.65
2019-03-29T11:50:33.607Z,15.15
2019-03-29T11:53:05.351Z,14.78
2019-03-29T11:55:37.080Z,13.93
2019-03-29T11:58:08.832Z,18.25
2019-03-29T12:00:41.405Z,20.23
2019-03-29T12:03:13.330Z,16.77
2019-03-29T12:05:45.040Z,14.90
2019-03-29T12:08:16.860Z,14.43
2019-03-29T12:10:48.545Z,13.98
2019-03-29T12:13:20.358Z,13.88
2019-03-29T12:15:52.207Z,14.00
2019-03-29T12:18:24.020Z,12.60
2019-03-29T12:20:55.771Z,13.18
2019-03-29T12:23:27.644Z,11.60
2019-03-29T12:25:59.458Z,11.88
2019-03-29T12:28:31.163Z,13.75
2019-03-29T12:31:02.912Z,13.28
2019-03-29T12:33:34.705Z,12.70
2019-03-29T12:36:06.471Z,11.88
2019-03-29T12:38:38.209Z,13.15
2019-03-29T12:41:09.940Z,13.00
2019-03-29T12:43:54.655Z,12.78
2019-03-29T12:46:15.030Z,11.35
2019-03-29T12:48:50.074Z,10.48
2019-03-29T12:51:20.155Z,9.58
2019-03-29T12:53:51.895Z,9.20
2019-03-29T12:56:23.687Z,11.35
2019-03-29T12:58:55.489Z,11.22
2019-03-29T13:01:38.520Z,10.58
2019-03-29T13:04:00.740Z,8.03
2019-03-29T13:06:32.447Z,7.60
2019-03-29T13:09:04.511Z,8.45
2019-03-29T13:11:36.230Z,10.10
2019-03-29T13:14:10.642Z,8.43
2019-03-29T13:16:42.488Z,6.78
2019-03-29T13:19:14.399Z,11.30
2019-03-29T13:21:46.351Z,8.33
2019-03-29T13:24:18.138Z,8.03
2019-03-29T13:26:49.978Z,6.05
2019-03-29T13:29:21.754Z,7.10
2019-03-29T13:31:53.579Z,8.25
2019-03-29T13:34:25.310Z,6.20
2019-03-29T13:36:57.004Z,7.92
2019-03-29T13:39:28.872Z,6.78
2019-03-29T13:42:00.826Z,5.53
2019-03-29T13:44:32.593Z,5.90
2019-03-29T13:47:04.299Z,5.28
2019-03-29T13:49:36.084Z,6.20
2019-03-29T13:52:07.862Z,5.85
2019-03-29T13:54:39.583Z,6.85
2019-03-29T13:57:11.379Z,6.58
2019-03-29T13:59:43.102Z,5.28
2019-03-29T14:02:14.941Z,5.50
2019-03-29T14:04:46.730Z,7.03
2019-03-29T14:07:18.521Z,6.65
2019-03-29T14:09:50.302Z,5.92
2019-03-29T14:12:22.070Z,6.70
2019-03-29T14:14:53.763Z,8.80
2019-03-29T14:17:25.650Z,7.00
2019-03-29T14:19:57.391Z,9.03
2019-03-29T14:22:29.181Z,7.10
2019-03-29T14:25:00.996Z,7.83
2019-03-29T14:27:32.954Z,7.10
2019-03-29T14:30:05.319Z,7.28
2019-03-29T14:32:37.306Z,8.78
2019-03-29T14:35:09.345Z,7.33
2019-03-29T14:37:41.165Z,9.80
2019-03-29T14:40:12.946Z,9.05
2019-03-29T14:42:44.801Z,8.28
2019-03-29T14:45:16.726Z,7.83
2019-03-29T14:47:48.578Z,10.30
2019-03-29T14:50:20.392Z,9.30
2019-03-29T14:52:52.097Z,10.90
2019-03-29T14:55:23.837Z,9.75
2019-03-29T14:57:55.656Z,8.70
2019-03-29T15:00:55.758Z,9.73
2019-03-29T15:03:27.625Z,10.50
2019-03-29T15:06:01.714Z,7.90
2019-03-29T15:08:32.917Z,9.13
2019-03-29T15:11:04.744Z,9.53
2019-03-29T15:13:36.621Z,8.40
2019-03-29T15:16:08.500Z,10.28
2019-03-29T15:18:40.274Z,9.30
2019-03-29T15:21:12.055Z,11.05
2019-03-29T15:23:43.817Z,11.85
2019-03-29T15:26:15.559Z,14.47
2019-03-29T15:28:47.215Z,12.55
2019-03-29T15:31:19.108Z,13.78
2019-03-29T15:33:50.995Z,14.43
2019-03-29T15:36:22.812Z,13.20
2019-03-29T15:38:55.647Z,13.72
2019-03-29T15:41:27.512Z,13.80
2019-03-29T15:43:59.428Z,15.03
2019-03-29T15:46:31.183Z,14.40
2019-03-29T15:49:02.926Z,14.55
2019-03-29T15:51:34.818Z,14.63
2019-03-29T15:54:06.698Z,14.35
2019-03-29T15:56:38.547Z,14.25
2019-03-29T15:59:10.394Z,14.58
2019-03-29T16:01:42.273Z,15.48
2019-03-29T16:04:14.178Z,14.28
2019-03-29T16:06:45.962Z,18.20
2019-03-29T16:09:17.661Z,18.85
2019-03-29T16:11:49.607Z,20.82
2019-03-29T16:14:21.307Z,21.87
2019-03-29T16:16:53.236Z,22.82
2019-03-29T16:19:25.128Z,22.75
2019-03-29T16:21:57.000Z,21.35
2019-03-29T16:24:29.411Z,24.02
2019-03-29T16:27:02.248Z,22.77
2019-03-29T16:29:34.143Z,23.12
2019-03-29T16:32:06.738Z,22.82
2019-03-29T16:34:38.511Z,25.77
2019-03-29T16:37:10.328Z,22.77
2019-03-29T16:39:42.045Z,22.62
2019-03-29T16:42:13.865Z,22.62
2019-03-29T16:44:45.604Z,22.58
2019-03-29T16:47:17.356Z,23.02
2019-03-29T16:49:49.083Z,25.15
2019-03-29T16:52:20.917Z,24.50
2019-03-29T16:54:52.730Z,23.12
2019-03-29T16:57:24.673Z,24.50
2019-03-29T16:59:56.508Z,25.40
2019-03-29T17:02:28.306Z,23.30
2019-03-29T17:05:00.351Z,26.97
2019-03-29T17:07:32.168Z,24.52
2019-03-29T17:10:04.062Z,24.23
2019-03-29T17:12:36.086Z,24.80
2019-03-29T17:15:08.144Z,32.67
2019-03-29T17:17:39.928Z,29.27
2019-03-29T17:20:11.732Z,28.40
2019-03-29T17:22:43.780Z,24.20
2019-03-29T17:25:16.614Z,29.30
2019-03-29T17:27:51.913Z,28.47
2019-03-29T17:30:36.964Z,29.10
2019-03-29T17:33:08.728Z,31.37
2019-03-29T17:35:40.688Z,27.37
2019-03-29T17:38:12.394Z,31.12
2019-03-29T17:40:44.178Z,30.23
2019-03-29T17:43:16.199Z,32.70
2019-03-29T17:45:48.003Z,30.75
2019-03-29T17:48:19.946Z,31.40
2019-03-29T17:50:51.757Z,33.25
2019-03-29T17:53:23.557Z,34.73
2019-03-29T17:55:55.326Z,30.08
2019-03-29T17:58:27.134Z,32.85
2019-03-29T18:00:58.962Z,35.90
2019-03-29T18:03:30.673Z,38.00
2019-03-29T18:06:02.435Z,35.10
2019-03-29T18:08:34.245Z,35.08
2019-03-29T18:11:06.074Z,39.10
2019-03-29T18:13:37.785Z,36.20
2019-03-29T18:16:09.618Z,36.63
2019-03-29T18:18:41.365Z,38.08
2019-03-29T18:21:13.211Z,37.20
2019-03-29T18:23:45.082Z,35.70
2019-03-29T18:26:16.794Z,55.28
2019-03-29T18:28:48.568Z,91.45
2019-03-29T18:31:20.313Z,46.60
2019-03-29T18:33:52.074Z,39.03
2019-03-29T18:36:23.816Z,35.40
2019-03-29T18:38:55.585Z,36.68
2019-03-29T18:41:27.357Z,35.78
2019-03-29T18:43:59.142Z,36.45
2019-03-29T18:46:43.990Z,37.42
2019-03-29T18:49:04.483Z,37.20
2019-03-29T18:51:36.286Z,37.88
2019-03-29T18:54:08.184Z,37.35
2019-03-29T18:56:40.017Z,39.40
2019-03-29T18:59:11.873Z,38.17
2019-03-29T19:01:43.712Z,36.17
2019-03-29T19:04:15.665Z,39.33
2019-03-29T19:06:47.525Z,37.08
2019-03-29T19:09:19.294Z,37.93
2019-03-29T19:11:51.043Z,39.70
2019-03-29T19:14:23.719Z,38.40
2019-03-29T19:16:59.443Z,38.53
2019-03-29T19:19:29.006Z,39.65
2019-03-29T19:22:01.794Z,38.95
2019-03-29T19:24:33.577Z,36.70
2019-03-29T19:27:05.286Z,38.28
2019-03-29T19:29:37.120Z,41.83
2019-03-29T19:32:08.963Z,40.78
2019-03-29T19:34:40.672Z,50.03
2019-03-29T19:37:12.434Z,43.98
2019-03-29T19:39:44.206Z,45.52
2019-03-29T19:42:16.922Z,41.53
2019-03-29T19:44:48.797Z,45.95
2019-03-29T19:47:20.555Z,63.92
2019-03-29T19:49:55.343Z,47.03
2019-03-29T19:52:26.918Z,45.85
2019-03-29T19:55:01.429Z,44.23
2019-03-29T19:57:33.309Z,43.00
2019-03-29T20:00:06.529Z,41.65
2019-03-29T20:02:40.702Z,41.08
2019-03-29T20:05:35.120Z,42.48
2019-03-29T20:08:06.954Z,43.55
2019-03-29T20:10:38.720Z,45.73
2019-03-29T20:13:10.792Z,43.95
2019-03-29T20:15:43.092Z,44.90
2019-03-29T20:18:15.300Z,43.28
2019-03-29T20:20:47.237Z,40.63
2019-03-29T20:23:19.091Z,43.23
2019-03-29T20:25:51.087Z,40.05
2019-03-29T20:28:22.937Z,42.08
2019-03-29T20:30:54.826Z,43.98
2019-03-29T20:33:27.026Z,45.30
2019-03-29T20:35:59.054Z,40.75
2019-03-29T20:38:31.150Z,51.10
2019-03-29T20:41:03.228Z,43.98
2019-03-29T20:43:35.117Z,46.75
2019-03-29T20:46:07.124Z,42.83
2019-03-29T20:48:39.081Z,43.68
2019-03-29T20:51:11.139Z,44.50
2019-03-29T20:53:43.905Z,47.20
2019-03-29T20:56:17.509Z,44.75
2019-03-29T20:58:52.067Z,41.88
2019-03-29T21:01:24.112Z,40.48
2019-03-29T21:03:56.926Z,39.60
2019-03-29T21:06:30.314Z,66.77
2019-03-29T21:09:07.555Z,87.12
2019-03-29T21:11:39.546Z,58.35
2019-03-29T21:14:12.352Z,49.10
2019-03-29T21:16:45.459Z,45.85
2019-03-29T21:19:17.244Z,46.28
2019-03-29T21:21:49.058Z,49.65
2019-03-29T21:24:22.246Z,48.50
2019-03-29T21:26:54.362Z,49.33
2019-03-29T21:29:26.542Z,46.68
2019-03-29T21:31:58.717Z,47.15
2019-03-29T21:34:30.724Z,44.73
2019-03-29T21:37:02.712Z,44.65
2019-03-29T21:39:34.843Z,46.53
2019-03-29T21:42:06.899Z,47.38
2019-03-29T21:44:38.987Z,43.02
2019-03-29T21:47:11.002Z,48.87
2019-03-29T21:49:43.402Z,44.27
2019-03-29T21:52:15.793Z,51.60
2019-03-29T21:54:48.007Z,46.48
2019-03-29T21:57:20.316Z,43.60
2019-03-29T21:59:52.460Z,46.73
2019-03-29T22:02:24.676Z,48.17
2019-03-29T22:04:56.768Z,75.03
2019-03-29T22:07:28.789Z,83.73
2019-03-29T22:10:01.286Z,70.43
2019-03-29T22:12:33.439Z,55.10
2019-03-29T22:15:06.231Z,45.83
2019-03-29T22:17:38.375Z,47.33
2019-03-29T22:20:10.934Z,49.50
2019-03-29T22:22:43.450Z,49.93
2019-03-29T22:25:15.451Z,48.13
2019-03-29T22:27:47.526Z,47.58
2019-03-29T22:30:21.599Z,47.30
2019-03-29T22:32:53.799Z,43.35
2019-03-29T22:35:25.890Z,48.90
2019-03-29T22:37:57.653Z,47.48
2019-03-29T22:40:29.423Z,48.60
2019-03-29T22:43:01.275Z,50.52
2019-03-29T22:45:33.362Z,46.50
2019-03-29T22:48:05.172Z,43.92
2019-03-29T22:50:37.079Z,48.63
2019-03-29T22:53:08.800Z,50.30
2019-03-29T22:55:40.601Z,51.80
2019-03-29T22:58:12.392Z,49.70
2019-03-29T23:00:46.765Z,51.95
2019-03-29T23:03:19.144Z,48.50
2019-03-29T23:05:52.025Z,47.95
2019-03-29T23:08:23.816Z,51.95
2019-03-29T23:10:55.684Z,49.18
2019-03-29T23:13:29.026Z,50.20
2019-03-29T23:16:00.775Z,50.83
2019-03-29T23:18:36.119Z,49.13
2019-03-29T23:21:07.865Z,55.07
2019-03-29T23:23:39.613Z,53.68
2019-03-29T23:26:11.437Z,53.13
2019-03-29T23:28:43.100Z,52.00
2019-03-29T23:31:15.057Z,48.80
2019-03-29T23:33:47.825Z,50.03
2019-03-29T23:36:19.611Z,50.30
2019-03-29T23:38:51.319Z,51.07
2019-03-29T23:41:23.071Z,47.30
2019-03-29T23:43:54.807Z,52.75
2019-03-29T23:46:26.552Z,46.70
2019-03-29T23:48:58.312Z,46.40
2019-03-29T23:51:31.195Z,52.07
2019-03-29T23:54:04.097Z,46.15
2019-03-29T23:56:35.851Z,46.60
2019-03-29T23:59:08.549Z,47.83
